• Join FlightAware (Why Join?)
  • Login
  • US Flag 
Trick or treat! (Boo!!) 
11:53AM EDT


 

Airport Tracker/Info


-or-


 

Live Flight TrackerFlight Track Log ✈ N53NW ✈ 09-May-2013 ✈ KMMU - KIAD

Flight Track Log - Related Links

Times and Time Zones

All times are in EDT time to prevent confusion due to time zone crossing. See the N53NW flight status page for this flight to view local times or setup timezone preferences in your user account.

Time Position Orientation Groundspeed Altitude Reporting Facility
EDT Latitude Longitude Course Direction KTS MPH feet Rate Location/Type
10:37AM 40.8500 -74.3667 57° Northeast 232 267 2,500  Level New York TRACON
10:38AM 40.8833 -74.3000 57° Northeast 272 313 6,000 3,180 Climbing New York TRACON
10:39AM 40.9333 -74.3833 308° West 281 323 8,900 2,280 Climbing New York TRACON
10:40AM 40.9000 -74.4667 242° Southwest 271 312 10,600 2,160 Climbing New York TRACON
10:42AM 40.8264 -74.6706 245° Southwest 301 346 15,800 2,100 Climbing New York Center
10:43AM 40.7850 -74.7861 245° Southwest 311 358 17,300 1,560 Climbing New York Center
10:44AM 40.7478 -74.8964 246° West 324 373 19,000 780 Climbing New York Center
10:45AM 40.7086 -75.0061 245° Southwest 330 380 19,000  Level New York Center
10:46AM 40.6694 -75.1050 242° Southwest 330 380 19,000  Level New York Center
10:47AM 40.6239 -75.2086 240° Southwest 336 387 19,000  Level New York Center
10:48AM 40.5694 -75.3253 238° Southwest 343 395 19,000  Level New York Center
10:49AM 40.5239 -75.4261 239° Southwest 338 389 19,000  Level New York Center
10:50AM 40.4761 -75.5294 239° Southwest 338 389 19,000  Level New York Center
10:51AM 40.4347 -75.6219 240° Southwest 328 377 19,000  Level New York Center
10:52AM 40.3867 -75.7247 238° Southwest 328 377 19,000  Level New York Center
10:53AM 40.3319 -75.8406 238° Southwest 335 386 19,000  Level New York Center
10:54AM 40.2833 -75.9458 239° Southwest 335 386 19,000  Level New York Center
10:55AM 40.2397 -76.0406 239° Southwest 335 386 19,000  Level New York Center
10:56AM 40.1844 -76.1533 237° Southwest 335 386 19,000 -360 Level New York Center
10:57AM 40.1403 -76.2531 240° Southwest 335 386 18,300 -1,200 Descending New York Center
10:58AM 40.0894 -76.3603 238° Southwest 335 386 16,700 -1,500 Descending New York Center
10:59AM 40.0500 -76.4467 239° Southwest 324 373 15,300 -1,620 Descending New York Center
11:00AM 40.0033 -76.5458 238° Southwest 307 353 13,600 -1,620 Descending New York Center
11:01AM 39.9806 -76.6281 250° West 285 328 12,100 -480 Descending New York Center
11:04AM 39.9333 -76.8500 255° West 284 327 12,100 -120 Level Potomac TRACON
11:05AM 39.8667 -76.9333 224° Southwest 285 328 11,800 -840 Descending Potomac TRACON
11:06AM 39.8167 -77.0167 232° Southwest 278 320 10,400 -900 Descending Potomac TRACON
11:07AM 39.7667 -77.1000 232° Southwest 278 320 10,000 -360 Descending Potomac TRACON
11:08AM 39.7167 -77.1667 226° Southwest 284 327 9,700 -900 Descending Potomac TRACON
11:09AM 39.6667 -77.2500 232° Southwest 265 305 8,200 -1,380 Descending Potomac TRACON
11:10AM 39.6333 -77.3167 237° Southwest 265 305 7,100 -1,140 Descending Potomac TRACON
11:11AM 39.5667 -77.3333 191° South 276 318 6,100 -600 Descending Potomac TRACON
11:12AM 39.5000 -77.3500 191° South 244 281 6,000 -360 Descending Potomac TRACON
11:13AM 39.4500 -77.3833 207° Southwest 230 265 5,400 -960 Descending Potomac TRACON
11:13AM 39.3833 -77.4167 201° Southwest 228 262 4,200 -780 Descending Potomac TRACON
11:14AM 39.3333 -77.4333 194° South 225 259 4,000 -240 Descending Potomac TRACON
11:15AM 39.2667 -77.4333 180° South 216 249 3,800 -540 Descending Potomac TRACON
11:16AM 39.2167 -77.4333 180° South 204 235 3,000 -420 Descending Potomac TRACON
11:17AM 39.1667 -77.4333 180° South 183 211 3,000  Level Potomac TRACON
11:18AM 39.1167 -77.4333 180° South 178 205 3,000 -300 Level Potomac TRACON
11:19AM 39.0667 -77.4333 180° South 176 203 2,500 -720 Descending Potomac TRACON
11:20AM 39.0167 -77.4333 180° South 170 196 1,700 -900 Descending Potomac TRACON
11:21AM 38.9833 -77.4333 180° South 126 145 900 -840 Descending Potomac TRACON
11:23AM 38.9474 -77.4599 90° East  Level Estimated
11:30AM 38.9474 -77.4599 90° East  Level Estimated
11:31AM 38.9474 -77.4599 90° East  Level Estimated